Tuckahoe, New Jersey
Current Conditions -  °F | °C
As of 3:54 AM on Monday 22 Dec 2014 (Local Time) from KACY Reporting Station
Clear Clear  
Wind Chill: 22°   Ceiling: Unl
Heat Index: 22°   Visibility: 10mi
Dew Point: 19°   Wind: 0mph
Humidity: 89%   Direction: NA
Pressure: 30.31"   Gusts: NA
Location:  39.29°N, 74.75°W
Report Text: KACY 220854Z 00000KT 10SM CLR M06/M07 A3031 RMK AO2 SLP264 T10561072 58002
Loading
Personal Weather Stations






























Interactive Weather Map New forecast layout! Learn more

10-Day Weather Forecast

Advertisements
Track Severe Weather on mobile